createdAt,value
2019-06-27T00:03:35.391Z,101914.79
2019-06-27T00:06:17.703Z,101915.73
2019-06-27T00:12:02.454Z,101913.24
2019-06-27T00:14:51.352Z,101921.14
2019-06-27T00:17:40.280Z,101926.98
2019-06-27T00:21:02.501Z,101926.80
2019-06-27T00:23:39.183Z,101921.72
2019-06-27T00:26:28.039Z,101920.02
2019-06-27T00:29:16.882Z,101920.55
2019-06-27T00:32:06.005Z,101926.13
2019-06-27T00:34:55.332Z,101924.94
2019-06-27T00:37:44.165Z,101919.75
2019-06-27T00:40:33.013Z,101934.86
2019-06-27T00:43:21.922Z,101934.94
2019-06-27T00:46:10.867Z,101936.24
2019-06-27T00:48:59.734Z,101932.70
2019-06-27T00:51:29.420Z,101932.78
2019-06-27T00:54:18.259Z,101937.17
2019-06-27T00:57:13.931Z,101940.22
2019-06-27T00:59:38.386Z,101934.53
2019-06-27T01:02:27.237Z,101929.34
2019-06-27T01:05:16.142Z,101941.70
2019-06-27T01:08:05.049Z,101936.91
2019-06-27T01:10:53.959Z,101940.78
2019-06-27T01:13:42.809Z,101938.21
2019-06-27T01:16:31.641Z,101936.48
2019-06-27T01:19:20.489Z,101936.55
2019-06-27T01:22:09.322Z,101936.98
2019-06-27T01:24:58.182Z,101943.56
2019-06-27T01:27:47.096Z,101941.41
2019-06-27T01:30:36.112Z,101936.56
2019-06-27T01:33:24.954Z,101941.84
2019-06-27T01:36:13.814Z,101938.78
2019-06-27T01:38:43.303Z,101935.69
2019-06-27T01:41:32.162Z,101939.64
2019-06-27T01:44:40.140Z,101940.53
2019-06-27T01:47:28.956Z,101937.92
2019-06-27T01:50:17.884Z,101939.68
2019-06-27T01:53:06.749Z,101935.31
2019-06-27T01:55:55.591Z,101934.87
2019-06-27T01:58:37.909Z,101942.34
2019-06-27T02:01:26.833Z,101944.97
2019-06-27T02:04:15.724Z,101944.53
2019-06-27T02:07:25.473Z,101941.45
2019-06-27T02:10:15.183Z,101946.67
2019-06-27T02:13:04.063Z,101953.25
2019-06-27T02:15:52.933Z,101948.84
2019-06-27T02:18:41.516Z,101949.30
2019-06-27T02:21:11.098Z,101944.45
2019-06-27T02:23:59.962Z,101952.78
2019-06-27T02:26:48.834Z,101957.14
2019-06-27T02:29:37.683Z,101951.86
2019-06-27T02:32:26.511Z,101959.34
2019-06-27T02:35:15.993Z,101968.09
2019-06-27T02:41:13.865Z,101968.50
2019-06-27T02:44:02.761Z,101966.75
2019-06-27T02:46:51.622Z,101970.23
2019-06-27T02:49:33.435Z,101966.66
2019-06-27T02:52:22.268Z,101969.23
2019-06-27T02:55:11.112Z,101966.95
2019-06-27T02:58:00.118Z,101964.84
2019-06-27T03:00:48.941Z,101975.30
2019-06-27T03:03:37.801Z,101976.20
2019-06-27T03:06:19.953Z,101974.06
2019-06-27T03:09:08.878Z,101977.12
2019-06-27T03:12:00.326Z,101987.17
2019-06-27T03:14:48.297Z,101990.50
2019-06-27T03:17:37.124Z,101987.83
2019-06-27T03:20:25.980Z,101983.30
2019-06-27T03:23:14.814Z,101990.02
2019-06-27T03:26:03.683Z,101990.48
2019-06-27T03:28:51.041Z,101989.94
2019-06-27T03:31:23.784Z,101998.75
2019-06-27T03:34:12.674Z,101989.04
2019-06-27T03:37:01.599Z,101991.64
2019-06-27T03:39:50.432Z,101994.29
2019-06-27T03:42:39.375Z,101992.52
2019-06-27T03:45:28.205Z,101998.05
2019-06-27T03:47:57.727Z,101998.05
2019-06-27T03:50:46.562Z,101994.46
2019-06-27T03:53:16.085Z,101991.39
2019-06-27T03:56:04.910Z,101999.84
2019-06-27T03:58:46.717Z,101996.21
2019-06-27T04:01:35.586Z,102009.30
2019-06-27T04:04:05.151Z,102008.21
2019-06-27T04:06:34.659Z,102016.80
2019-06-27T04:09:23.536Z,102014.22
2019-06-27T04:12:12.367Z,102017.34
2019-06-27T04:14:41.954Z,102016.84
2019-06-27T04:17:30.832Z,102019.84
2019-06-27T04:20:00.470Z,102017.25
2019-06-27T04:22:49.516Z,102024.72
2019-06-27T04:25:38.313Z,102024.34
2019-06-27T04:28:27.170Z,102025.66
2019-06-27T04:31:15.995Z,102027.23
2019-06-27T04:34:04.932Z,102030.80
2019-06-27T04:36:53.862Z,102023.63
2019-06-27T04:39:42.712Z,102022.43
2019-06-27T04:42:31.555Z,102023.41
2019-06-27T04:45:20.403Z,102022.42
2019-06-27T04:47:49.916Z,102027.31
2019-06-27T04:50:38.860Z,102028.00
2019-06-27T04:59:52.537Z,102029.13
2019-06-27T05:02:30.682Z,102033.30
2019-06-27T05:04:59.627Z,102024.49
2019-06-27T05:07:29.212Z,102027.91
2019-06-27T05:09:58.728Z,102035.00
2019-06-27T05:12:47.598Z,102032.07
2019-06-27T05:15:17.197Z,102032.92
2019-06-27T05:18:06.129Z,102031.12
2019-06-27T05:20:35.714Z,102037.03
2019-06-27T05:23:24.579Z,102043.62
2019-06-27T05:25:54.093Z,102047.30
2019-06-27T05:28:42.935Z,102052.12
2019-06-27T05:31:31.801Z,102054.91
2019-06-27T05:34:01.302Z,102057.56
2019-06-27T05:36:30.822Z,102058.86
2019-06-27T05:39:19.702Z,102063.31
2019-06-27T05:42:08.581Z,102067.25
2019-06-27T05:44:57.435Z,102065.50
2019-06-27T05:47:46.316Z,102073.06
2019-06-27T05:50:27.719Z,102075.18
2019-06-27T05:53:16.565Z,102074.81
2019-06-27T05:56:05.404Z,102066.53
2019-06-27T05:59:13.592Z,102069.59
2019-06-27T06:02:02.461Z,102070.95
2019-06-27T06:04:51.303Z,102074.02
2019-06-27T06:07:40.195Z,102073.17
2019-06-27T06:10:29.135Z,102064.84
2019-06-27T06:13:17.970Z,102073.14
2019-06-27T06:16:06.811Z,102074.47
2019-06-27T06:19:02.736Z,102078.00
2019-06-27T06:21:51.588Z,102078.42
2019-06-27T06:24:40.448Z,102073.59
2019-06-27T06:27:29.288Z,102074.05
2019-06-27T06:30:18.314Z,102084.16
2019-06-27T06:33:07.215Z,102088.07
2019-06-27T06:35:56.078Z,102087.64
2019-06-27T06:38:44.939Z,102093.33
2019-06-27T06:41:33.775Z,102095.09
2019-06-27T06:44:22.620Z,102091.60
2019-06-27T06:47:11.452Z,102093.34
2019-06-27T06:50:00.714Z,102094.15
2019-06-27T06:52:49.550Z,102096.86
2019-06-27T06:55:38.426Z,102097.27
2019-06-27T06:58:27.284Z,102098.63
2019-06-27T07:01:01.394Z,102096.69
2019-06-27T07:03:47.422Z,102100.23
2019-06-27T07:06:36.266Z,102101.95
2019-06-27T07:09:25.111Z,102110.72
2019-06-27T07:12:13.951Z,102108.38
2019-06-27T07:15:02.937Z,102104.86
2019-06-27T07:17:51.781Z,102109.02
2019-06-27T07:20:40.639Z,102115.64
2019-06-27T07:23:29.473Z,102104.83
2019-06-27T07:26:21.923Z,102103.58
2019-06-27T07:29:08.876Z,102111.67
2019-06-27T07:31:57.989Z,102111.42
2019-06-27T07:34:46.845Z,102109.76
2019-06-27T07:37:35.747Z,102106.64
2019-06-27T07:40:24.591Z,102109.11
2019-06-27T07:43:13.458Z,102112.02
2019-06-27T07:46:02.305Z,102111.00
2019-06-27T07:48:51.144Z,102115.38
2019-06-27T07:51:33.344Z,102112.98
2019-06-27T07:54:22.160Z,102117.23
2019-06-27T07:57:11.019Z,102110.87
2019-06-27T07:59:59.829Z,102112.98
2019-06-27T08:02:42.028Z,102110.52
2019-06-27T08:05:30.872Z,102107.92
2019-06-27T08:08:19.693Z,102104.30
2019-06-27T08:11:08.685Z,102100.45
2019-06-27T08:13:57.548Z,102105.39
2019-06-27T08:16:27.124Z,102105.75
2019-06-27T08:19:16.053Z,102107.48
2019-06-27T08:22:05.117Z,102114.50
2019-06-27T08:24:54.022Z,102108.23
2019-06-27T08:27:42.884Z,102118.03
2019-06-27T08:33:27.450Z,102103.41
2019-06-27T08:36:16.286Z,102096.17
2019-06-27T08:42:20.421Z,102103.08
2019-06-27T08:48:24.520Z,102105.16
2019-06-27T08:51:13.362Z,102106.34
2019-06-27T08:54:02.208Z,102103.59
2019-06-27T08:56:51.057Z,102105.19
2019-06-27T08:59:39.945Z,102104.77
2019-06-27T09:02:21.759Z,102100.36
2019-06-27T09:05:10.744Z,102102.36
2019-06-27T09:07:59.566Z,102103.19
2019-06-27T09:10:48.445Z,102098.92
2019-06-27T09:13:17.983Z,102100.45
2019-06-27T09:16:06.885Z,102096.39
2019-06-27T09:18:55.759Z,102100.80
2019-06-27T09:21:44.603Z,102098.02
2019-06-27T09:24:33.492Z,102097.52
2019-06-27T09:27:22.336Z,102099.29
2019-06-27T09:33:26.633Z,102096.43
2019-06-27T09:36:15.478Z,102088.15
2019-06-27T09:42:18.800Z,102090.03
2019-06-27T09:45:07.761Z,102093.43
2019-06-27T09:47:56.704Z,102093.08
2019-06-27T09:50:38.510Z,102084.44
2019-06-27T09:53:27.394Z,102088.52
2019-06-27T09:56:16.295Z,102091.68
2019-06-27T09:59:05.125Z,102085.16
2019-06-27T10:01:47.119Z,102089.20
2019-06-27T10:04:35.950Z,102088.95
2019-06-27T10:07:24.839Z,102083.82
2019-06-27T10:13:42.077Z,102078.13
2019-06-27T10:16:30.972Z,102077.65
2019-06-27T10:19:19.818Z,102067.59
2019-06-27T10:22:08.667Z,102078.55
2019-06-27T10:24:57.626Z,102068.23
2019-06-27T10:27:46.576Z,102066.08
2019-06-27T10:30:35.408Z,102064.53
2019-06-27T10:33:24.265Z,102066.89
2019-06-27T10:36:13.122Z,102067.48
2019-06-27T10:39:01.956Z,102059.31
2019-06-27T10:41:50.807Z,102058.46
2019-06-27T10:44:39.664Z,102060.64
2019-06-27T10:47:28.574Z,102051.88
2019-06-27T10:50:38.274Z,102054.41
2019-06-27T10:53:27.135Z,102053.25
2019-06-27T10:56:15.985Z,102055.00
2019-06-27T10:59:04.838Z,102047.52
2019-06-27T11:01:48.702Z,102047.20
2019-06-27T11:04:37.521Z,102050.58
2019-06-27T11:07:41.370Z,102044.34
2019-06-27T11:10:17.004Z,102044.16
2019-06-27T11:13:05.867Z,102036.78
2019-06-27T11:15:54.772Z,102037.92
2019-06-27T11:18:43.643Z,102036.32
2019-06-27T11:21:32.486Z,102039.09
2019-06-27T11:24:21.310Z,102025.48
2019-06-27T11:27:10.189Z,102028.23
2019-06-27T11:29:59.036Z,102029.89
2019-06-27T11:32:47.876Z,102024.83
2019-06-27T11:35:36.690Z,102019.72
2019-06-27T11:38:25.531Z,102022.19
2019-06-27T11:41:14.373Z,102013.95
2019-06-27T11:44:03.472Z,102016.98
2019-06-27T11:46:52.312Z,102019.19
2019-06-27T11:49:41.143Z,102018.99
2019-06-27T11:52:29.994Z,102008.55
2019-06-27T11:55:18.960Z,102022.50
2019-06-27T11:58:07.763Z,102005.17
2019-06-27T12:00:56.584Z,102010.38
2019-06-27T12:03:48.682Z,102014.97
2019-06-27T12:06:29.307Z,102014.10
2019-06-27T12:09:18.318Z,102014.01
2019-06-27T12:12:07.197Z,102008.82
2019-06-27T12:14:56.068Z,102015.10
2019-06-27T12:17:44.897Z,102011.38
2019-06-27T12:20:33.751Z,101997.88
2019-06-27T12:23:22.578Z,102005.17
2019-06-27T12:26:11.546Z,101998.24
2019-06-27T12:29:00.378Z,101999.02
2019-06-27T12:31:51.613Z,101991.19
2019-06-27T12:34:39.815Z,101991.57
2019-06-27T12:37:47.988Z,101998.56
2019-06-27T12:40:36.919Z,101999.09
2019-06-27T12:43:25.762Z,101991.61
2019-06-27T12:46:14.614Z,101989.30
2019-06-27T12:49:03.538Z,101984.49
2019-06-27T12:51:52.373Z,101983.69
2019-06-27T12:54:41.279Z,101978.05
2019-06-27T12:57:30.179Z,101982.17
2019-06-27T13:03:34.866Z,101978.53
2019-06-27T13:06:23.731Z,101973.90
2019-06-27T13:09:12.600Z,101979.09
2019-06-27T13:12:01.522Z,101974.09
2019-06-27T13:14:50.359Z,101970.33
2019-06-27T13:17:39.264Z,101959.95
2019-06-27T13:20:28.298Z,101956.50
2019-06-27T13:23:17.183Z,101962.67
2019-06-27T13:26:06.338Z,101958.67
2019-06-27T13:28:55.162Z,101951.55
2019-06-27T13:31:43.995Z,101951.80
2019-06-27T13:34:40.259Z,101948.19
2019-06-27T13:37:23.401Z,101947.72
2019-06-27T13:40:12.546Z,101949.38
2019-06-27T13:43:01.396Z,101941.06
2019-06-27T13:45:50.239Z,101944.11
2019-06-27T13:48:39.203Z,101941.26
2019-06-27T13:51:28.035Z,101934.98
2019-06-27T13:54:16.956Z,101931.58
2019-06-27T13:57:05.882Z,101936.55
2019-06-27T13:59:54.797Z,101932.09
2019-06-27T14:02:43.672Z,101929.75
2019-06-27T14:05:25.029Z,101925.14
2019-06-27T14:08:14.132Z,101919.95
2019-06-27T14:11:03.029Z,101924.49
2019-06-27T14:13:51.991Z,101925.61
2019-06-27T14:16:40.905Z,101914.72
2019-06-27T14:19:30.386Z,101905.55
2019-06-27T14:22:32.936Z,101908.07
2019-06-27T14:25:09.922Z,101908.66
2019-06-27T14:27:58.788Z,101914.27
2019-06-27T14:30:47.689Z,101915.48
2019-06-27T14:33:37.685Z,101909.80
2019-06-27T14:36:26.552Z,101909.27
2019-06-27T14:39:15.794Z,101906.33
2019-06-27T14:42:04.719Z,101899.67
2019-06-27T14:44:53.557Z,101908.63
2019-06-27T14:47:42.536Z,101908.45
2019-06-27T14:50:31.388Z,101905.17
2019-06-27T14:53:20.246Z,101901.05
2019-06-27T14:56:09.107Z,101899.72
2019-06-27T14:58:57.958Z,101896.74
2019-06-27T15:01:46.778Z,101897.66
2019-06-27T15:04:28.383Z,101896.30
2019-06-27T15:07:17.277Z,101898.61
2019-06-27T15:10:25.543Z,101901.84
2019-06-27T15:13:14.413Z,101893.69
2019-06-27T15:16:11.943Z,101899.77
2019-06-27T15:18:53.836Z,101892.78
2019-06-27T15:21:42.726Z,101893.09
2019-06-27T15:24:31.596Z,101890.38
2019-06-27T15:33:31.311Z,101885.73
2019-06-27T15:36:20.137Z,101890.58
2019-06-27T15:39:11.872Z,101880.76
2019-06-27T15:42:01.684Z,101889.89
2019-06-27T15:44:50.504Z,101886.73
2019-06-27T15:47:39.338Z,101885.59
2019-06-27T15:50:28.264Z,101881.09
2019-06-27T15:53:17.168Z,101881.11
2019-06-27T15:56:06.000Z,101881.02
2019-06-27T15:58:54.885Z,101879.88
2019-06-27T16:01:43.732Z,101870.78
2019-06-27T16:04:34.373Z,101877.94
2019-06-27T16:07:16.667Z,101879.16
2019-06-27T16:10:24.950Z,101877.58
2019-06-27T16:13:13.850Z,101870.77
2019-06-27T16:16:02.679Z,101866.45
2019-06-27T16:18:51.554Z,101861.75
2019-06-27T16:21:40.470Z,101863.48
2019-06-27T16:24:29.309Z,101867.11
2019-06-27T16:27:18.206Z,101859.73
2019-06-27T16:30:27.938Z,101854.72
2019-06-27T16:33:16.772Z,101844.83
2019-06-27T16:36:05.772Z,101850.13
2019-06-27T16:38:54.673Z,101849.70
2019-06-27T16:41:43.574Z,101838.64
2019-06-27T16:44:32.490Z,101843.69
2019-06-27T16:47:21.366Z,101847.83
2019-06-27T16:50:10.561Z,101847.41
2019-06-27T16:52:59.400Z,101845.29
2019-06-27T16:55:48.389Z,101840.06
2019-06-27T16:58:37.224Z,101840.96
2019-06-27T17:01:26.121Z,101836.17
2019-06-27T17:04:14.959Z,101844.59
2019-06-27T17:06:56.506Z,101840.19
2019-06-27T17:09:45.344Z,101840.07
2019-06-27T17:12:27.467Z,101840.45
2019-06-27T17:15:37.170Z,101834.44
2019-06-27T17:18:26.199Z,101839.77
2019-06-27T17:21:15.132Z,101838.77
2019-06-27T17:24:04.085Z,101833.42
2019-06-27T17:26:52.921Z,101834.75
2019-06-27T17:29:41.826Z,101836.27
2019-06-27T17:32:30.714Z,101831.77
2019-06-27T17:35:19.517Z,101838.80
2019-06-27T17:38:08.404Z,101835.13
2019-06-27T17:40:57.302Z,101840.42
2019-06-27T17:43:46.173Z,101837.36
2019-06-27T17:46:34.999Z,101839.06
2019-06-27T17:49:23.857Z,101832.30
2019-06-27T17:52:12.699Z,101836.86
2019-06-27T17:55:01.544Z,101839.59
2019-06-27T17:57:50.373Z,101839.02
2019-06-27T18:00:39.311Z,101836.42
2019-06-27T18:03:28.171Z,101828.53
2019-06-27T18:06:09.916Z,101837.66
2019-06-27T18:08:58.765Z,101839.80
2019-06-27T18:11:47.618Z,101834.04
2019-06-27T18:14:36.444Z,101840.63
2019-06-27T18:17:33.399Z,101833.91
2019-06-27T18:20:15.845Z,101825.65
2019-06-27T18:23:04.707Z,101831.25
2019-06-27T18:25:53.553Z,101832.98
2019-06-27T18:28:42.486Z,101825.52
2019-06-27T18:31:31.330Z,101829.87
2019-06-27T18:34:20.177Z,101823.02
2019-06-27T18:37:09.036Z,101823.66
2019-06-27T18:39:57.886Z,101824.64
2019-06-27T18:42:46.722Z,101830.67
2019-06-27T18:45:35.577Z,101825.23
2019-06-27T18:48:24.425Z,101820.37
2019-06-27T18:51:13.281Z,101821.48
2019-06-27T18:54:02.193Z,101819.67
2019-06-27T18:56:51.034Z,101819.41
2019-06-27T18:59:39.900Z,101816.27
2019-06-27T19:05:24.988Z,101813.51
2019-06-27T19:08:07.362Z,101812.00
2019-06-27T19:10:36.911Z,101819.14
2019-06-27T19:13:25.746Z,101811.82
2019-06-27T19:16:14.643Z,101811.95
2019-06-27T19:22:17.943Z,101811.97
2019-06-27T19:31:18.338Z,101818.06
2019-06-27T19:34:07.288Z,101820.80
2019-06-27T19:36:56.169Z,101822.77
2019-06-27T19:39:45.005Z,101825.63
2019-06-27T19:42:33.866Z,101822.88
2019-06-27T19:45:22.825Z,101830.42
2019-06-27T19:48:11.675Z,101832.47
2019-06-27T19:51:00.562Z,101835.33
2019-06-27T19:53:49.447Z,101841.02
2019-06-27T19:56:38.667Z,101837.86
2019-06-27T19:59:28.839Z,101845.89
2019-06-27T20:02:17.683Z,101844.16
2019-06-27T20:05:06.712Z,101847.85
2019-06-27T20:07:48.970Z,101850.76
2019-06-27T20:10:37.968Z,101853.16
2019-06-27T20:13:26.803Z,101857.00
2019-06-27T20:16:15.694Z,101859.60
2019-06-27T20:19:06.017Z,101867.84
2019-06-27T20:21:55.296Z,101867.53
2019-06-27T20:24:44.202Z,101874.53
2019-06-27T20:27:33.145Z,101874.49
2019-06-27T20:30:22.089Z,101871.19
2019-06-27T20:36:06.048Z,101880.95
2019-06-27T20:38:54.844Z,101885.59
2019-06-27T20:41:43.713Z,101881.38
2019-06-27T20:44:32.534Z,101885.34
2019-06-27T20:47:21.394Z,101881.13
2019-06-27T20:53:25.153Z,101883.77
2019-06-27T20:56:14.024Z,101883.73
2019-06-27T20:58:55.877Z,101881.52
2019-06-27T21:01:45.438Z,101885.13
2019-06-27T21:04:34.238Z,101888.56
2019-06-27T21:07:15.874Z,101890.94
2019-06-27T21:10:25.589Z,101892.42
2019-06-27T21:13:14.612Z,101896.29
2019-06-27T21:16:03.475Z,101890.94
2019-06-27T21:18:53.090Z,101897.61
2019-06-27T21:21:41.910Z,101902.42
2019-06-27T21:24:30.866Z,101901.77
2019-06-27T21:27:19.921Z,101901.25
2019-06-27T21:33:24.378Z,101902.16
2019-06-27T21:36:13.293Z,101899.17
2019-06-27T21:39:07.546Z,101897.81
2019-06-27T21:41:52.650Z,101899.67
2019-06-27T21:44:41.481Z,101898.36
2019-06-27T21:47:30.456Z,101904.18
2019-06-27T21:50:19.548Z,101904.13
2019-06-27T21:53:08.665Z,101907.71
2019-06-27T21:55:57.521Z,101906.06
2019-06-27T21:58:46.434Z,101919.34
2019-06-27T22:01:35.350Z,101916.25
2019-06-27T22:04:24.271Z,101916.30
2019-06-27T22:07:06.739Z,101911.45
2019-06-27T22:09:55.591Z,101915.41
2019-06-27T22:12:44.418Z,101912.37
2019-06-27T22:15:33.446Z,101905.38
2019-06-27T22:18:22.309Z,101911.98
2019-06-27T22:21:11.147Z,101914.16
2019-06-27T22:24:00.001Z,101911.58
2019-06-27T22:26:48.847Z,101908.06
2019-06-27T22:29:37.771Z,101901.94
2019-06-27T22:32:26.628Z,101903.71
2019-06-27T22:39:02.983Z,101899.34
2019-06-27T22:42:10.892Z,101897.59
2019-06-27T22:45:18.777Z,101891.83
2019-06-27T22:48:26.621Z,101893.19
2019-06-27T22:54:49.053Z,101893.56
2019-06-27T22:57:38.024Z,101900.16
2019-06-27T23:00:26.977Z,101900.09
2019-06-27T23:03:15.784Z,101903.17
2019-06-27T23:06:04.707Z,101908.00
2019-06-27T23:08:46.674Z,101902.31
2019-06-27T23:11:35.613Z,101898.36
2019-06-27T23:14:24.456Z,101895.69
2019-06-27T23:17:13.417Z,101899.22
2019-06-27T23:20:02.282Z,101904.41
2019-06-27T23:22:51.117Z,101892.17
2019-06-27T23:25:39.976Z,101895.70
2019-06-27T23:28:28.812Z,101896.48
2019-06-27T23:31:17.663Z,101894.57
2019-06-27T23:34:06.498Z,101891.42
2019-06-27T23:36:55.329Z,101891.84
2019-06-27T23:39:44.224Z,101882.53
2019-06-27T23:42:33.124Z,101881.09
2019-06-27T23:45:21.964Z,101887.11
2019-06-27T23:48:10.822Z,101882.08
2019-06-27T23:50:59.674Z,101885.30
2019-06-27T23:53:48.590Z,101889.23
2019-06-27T23:56:37.437Z,101886.70
2019-06-27T23:59:26.264Z,101889.95
